Time;durP1;ratioP1;P1;durP2;ratioP2;P2;SDS_P1;SDS_P2;PMS_P1;PMS_P2;Temp;Humidity;BMP_temperature;BMP_pressure;BME280_temperature;BME280_humidity;BME280_pressure;Samples;Min_cycle;Max_cycle;Signal;HPM_P1;HPM_P2
2023/12/25 00:01:19;;;;;;;56.58;35.70;;;;;;;;;;5029504;28;20018;-67
2023/12/25 00:03:45;;;;;;;59.97;36.78;;;;;;;;;;5029569;28;20375;-67
2023/12/25 00:06:11;;;;;;;62.00;37.25;;;;;;;;;;5029368;28;20030;-67
2023/12/25 00:08:37;;;;;;;60.58;38.05;;;;;;;;;;5027808;28;20112;-68
2023/12/25 00:11:03;;;;;;;58.50;36.45;;;;;;;;;;5029140;28;20049;-67
2023/12/25 00:13:29;;;;;;;56.63;36.15;;;;;;;;;;5029380;28;20430;-68
2023/12/25 00:15:55;;;;;;;59.08;35.15;;;;;;;;;;5029079;28;20109;-67
2023/12/25 00:18:21;;;;;;;58.45;35.67;;;;;;;;;;5029454;28;20397;-67
2023/12/25 00:20:47;;;;;;;54.40;34.95;;;;;;;;;;5029133;28;20104;-66
2023/12/25 00:23:13;;;;;;;58.55;36.13;;;;;;;;;;5029207;28;20032;-66
2023/12/25 00:25:39;;;;;;;60.50;34.58;;;;;;;;;;5028974;28;20092;-67
2023/12/25 00:28:05;;;;;;;61.00;35.05;;;;;;;;;;5029317;28;20029;-66
2023/12/25 00:30:31;;;;;;;52.58;32.70;;;;;;;;;;5029313;28;20128;-67
2023/12/25 00:32:57;;;;;;;55.22;33.85;;;;;;;;;;5034617;28;20048;-67
2023/12/25 00:35:23;;;;;;;58.53;35.20;;;;;;;;;;5029684;28;20478;-67
2023/12/25 00:37:49;;;;;;;54.67;34.92;;;;;;;;;;5029280;28;20048;-67
2023/12/25 00:40:15;;;;;;;55.20;33.97;;;;;;;;;;5028647;28;20022;-66
2023/12/25 00:42:41;;;;;;;55.20;33.75;;;;;;;;;;5029099;28;20052;-66
2023/12/25 00:45:07;;;;;;;62.60;32.40;;;;;;;;;;5031027;28;20179;-69
2023/12/25 00:47:33;;;;;;;53.58;32.45;;;;;;;;;;5035088;28;20215;-67
2023/12/25 00:49:59;;;;;;;62.88;33.17;;;;;;;;;;5028820;28;20635;-71
2023/12/25 00:52:25;;;;;;;57.83;32.55;;;;;;;;;;5028783;28;20136;-69
2023/12/25 00:54:51;;;;;;;53.83;32.45;;;;;;;;;;5028633;28;20033;-70
2023/12/25 00:57:17;;;;;;;33.85;17.85;;;;;;;;;;5029184;28;20485;-71
2023/12/25 00:59:43;;;;;;;28.60;17.73;;;;;;;;;;5029266;28;20100;-71
2023/12/25 01:02:09;;;;;;;19.60;12.13;;;;;;;;;;5028654;28;20021;-71
2023/12/25 01:04:35;;;;;;;21.92;12.50;;;;;;;;;;5032570;28;20025;-71
2023/12/25 01:07:01;;;;;;;21.50;12.23;;;;;;;;;;5032461;28;20033;-71
2023/12/25 01:09:27;;;;;;;14.63;8.68;;;;;;;;;;5032286;28;20040;-73
2023/12/25 01:11:53;;;;;;;15.48;9.57;;;;;;;;;;5032514;28;20030;-71
2023/12/25 01:14:19;;;;;;;12.00;7.28;;;;;;;;;;5032205;28;20032;-72
2023/12/25 01:16:45;;;;;;;13.60;7.68;;;;;;;;;;5032033;28;20094;-70
2023/12/25 01:19:12;;;;;;;9.90;6.75;;;;;;;;;;5032342;28;20135;-72
2023/12/25 01:21:38;;;;;;;10.98;7.13;;;;;;;;;;5036137;28;20032;-71
2023/12/25 01:24:04;;;;;;;13.55;6.65;;;;;;;;;;5032250;28;20026;-71
2023/12/25 01:26:30;;;;;;;11.93;6.63;;;;;;;;;;5037333;28;20028;-71
2023/12/25 01:28:56;;;;;;;11.20;6.45;;;;;;;;;;5031463;28;20029;-71
2023/12/25 01:31:23;;;;;;;9.43;5.75;;;;;;;;;;5032021;28;20332;-71
2023/12/25 01:33:49;;;;;;;8.20;5.03;;;;;;;;;;5038621;28;20083;-71
2023/12/25 01:36:15;;;;;;;13.07;6.00;;;;;;;;;;5034003;28;20470;-71
2023/12/25 01:38:41;;;;;;;9.70;6.38;;;;;;;;;;5040483;28;20056;-72
2023/12/25 01:41:07;;;;;;;7.35;4.47;;;;;;;;;;5033840;28;20020;-73
2023/12/25 01:43:33;;;;;;;11.02;5.40;;;;;;;;;;5039993;28;20395;-72
2023/12/25 01:45:59;;;;;;;6.70;4.53;;;;;;;;;;5041423;28;20025;-72
2023/12/25 01:48:26;;;;;;;7.45;4.80;;;;;;;;;;5033570;28;20101;-71
2023/12/25 01:50:53;;;;;;;8.65;4.85;;;;;;;;;;5033219;28;20116;-71
2023/12/25 01:53:20;;;;;;;7.05;4.60;;;;;;;;;;5033422;28;20045;-72
2023/12/25 01:55:46;;;;;;;6.53;4.53;;;;;;;;;;5033413;28;20034;-72
2023/12/25 01:58:15;;;;;;;6.85;3.88;;;;;;;;;;5036228;28;20032;-75
2023/12/25 02:00:41;;;;;;;7.57;4.47;;;;;;;;;;5036012;28;20402;-70
2023/12/25 02:03:07;;;;;;;15.70;6.70;;;;;;;;;;5033627;28;20024;-66
2023/12/25 02:05:33;;;;;;;11.63;6.30;;;;;;;;;;5033378;28;20021;-68
2023/12/25 02:08:00;;;;;;;15.45;7.75;;;;;;;;;;5033119;28;20029;-67
2023/12/25 02:10:27;;;;;;;21.45;7.65;;;;;;;;;;5033003;28;20029;-68
2023/12/25 02:12:53;;;;;;;15.27;7.35;;;;;;;;;;5032980;28;20505;-69
2023/12/25 02:15:19;;;;;;;13.85;8.05;;;;;;;;;;5032619;28;20512;-69
2023/12/25 02:17:46;;;;;;;17.67;7.88;;;;;;;;;;5033112;28;20032;-68
2023/12/25 02:20:13;;;;;;;12.95;7.30;;;;;;;;;;5032284;28;20100;-68
2023/12/25 02:22:39;;;;;;;17.10;7.63;;;;;;;;;;5032816;28;20052;-67
2023/12/25 02:25:12;;;;;;;13.60;7.80;;;;;;;;;;5032447;28;20436;-68
2023/12/25 02:27:39;;;;;;;12.27;7.53;;;;;;;;;;5036717;28;20025;-68
2023/12/25 02:30:05;;;;;;;14.70;7.93;;;;;;;;;;5032510;28;20368;-68
2023/12/25 02:32:31;;;;;;;14.85;7.82;;;;;;;;;;5035819;28;20056;-69
2023/12/25 02:34:57;;;;;;;13.40;8.25;;;;;;;;;;5028471;28;20049;-67
2023/12/25 02:37:23;;;;;;;14.00;8.07;;;;;;;;;;5032510;28;20017;-70
2023/12/25 02:39:49;;;;;;;14.85;8.23;;;;;;;;;;5032234;28;20035;-70
2023/12/25 02:42:16;;;;;;;19.60;8.00;;;;;;;;;;5032368;28;20009;-68
2023/12/25 02:44:42;;;;;;;14.10;7.90;;;;;;;;;;5032343;28;20029;-67
2023/12/25 02:47:08;;;;;;;14.02;8.13;;;;;;;;;;5040309;28;20045;-70
2023/12/25 02:49:34;;;;;;;11.25;7.63;;;;;;;;;;5032165;28;20060;-68
2023/12/25 02:52:00;;;;;;;13.88;8.52;;;;;;;;;;5032046;28;20026;-69
2023/12/25 02:54:26;;;;;;;17.27;8.50;;;;;;;;;;5030553;28;20376;-67
2023/12/25 02:56:52;;;;;;;16.17;7.85;;;;;;;;;;5032137;28;20060;-67
2023/12/25 02:59:18;;;;;;;13.98;7.32;;;;;;;;;;5031874;28;20155;-67
2023/12/25 03:01:43;;;;;;;16.98;8.90;;;;;;;;;;5032158;28;20026;-67
2023/12/25 03:04:09;;;;;;;15.20;8.68;;;;;;;;;;5032049;28;20030;-67
2023/12/25 03:06:35;;;;;;;19.45;9.25;;;;;;;;;;5031699;28;20021;-69
2023/12/25 03:09:01;;;;;;;16.58;7.63;;;;;;;;;;5031865;28;20030;-68
2023/12/25 03:11:27;;;;;;;14.20;8.65;;;;;;;;;;5031694;28;20025;-69
2023/12/25 03:13:53;;;;;;;14.77;8.43;;;;;;;;;;5033638;28;20025;-68
2023/12/25 03:16:19;;;;;;;24.10;7.78;;;;;;;;;;5031850;28;20071;-68
2023/12/25 03:18:45;;;;;;;13.98;7.55;;;;;;;;;;5031706;28;20513;-67
2023/12/25 03:21:11;;;;;;;15.30;8.55;;;;;;;;;;5029939;28;20025;-68
2023/12/25 03:23:37;;;;;;;14.88;8.40;;;;;;;;;;5031691;28;20029;-68
2023/12/25 03:26:05;;;;;;;15.63;8.13;;;;;;;;;;5030391;28;20038;-68
2023/12/25 03:28:31;;;;;;;15.65;7.95;;;;;;;;;;5031674;28;20091;-68
2023/12/25 03:30:57;;;;;;;27.65;8.57;;;;;;;;;;5031189;28;20379;-68
2023/12/25 03:33:23;;;;;;;13.02;7.68;;;;;;;;;;5037036;28;20487;-67
2023/12/25 03:35:49;;;;;;;13.82;7.70;;;;;;;;;;5033970;28;20533;-69
2023/12/25 03:38:15;;;;;;;14.82;7.78;;;;;;;;;;5031320;28;20049;-68
2023/12/25 03:40:41;;;;;;;12.80;7.45;;;;;;;;;;5029754;28;20109;-68
2023/12/25 03:43:07;;;;;;;16.30;7.70;;;;;;;;;;5031371;28;20100;-68
2023/12/25 03:45:33;;;;;;;13.50;7.53;;;;;;;;;;5036656;28;20112;-69
2023/12/25 03:47:59;;;;;;;18.15;8.27;;;;;;;;;;5033886;28;20049;-68
2023/12/25 03:50:25;;;;;;;16.08;7.90;;;;;;;;;;5031111;28;20030;-69
2023/12/25 03:52:51;;;;;;;14.80;8.18;;;;;;;;;;5031036;28;20029;-67
2023/12/25 03:55:17;;;;;;;14.57;7.15;;;;;;;;;;5023220;28;20025;-69
2023/12/25 03:57:43;;;;;;;14.32;7.95;;;;;;;;;;5029593;28;20032;-70
2023/12/25 04:00:09;;;;;;;21.30;7.53;;;;;;;;;;5030932;28;20052;-69
2023/12/25 04:02:35;;;;;;;11.88;8.02;;;;;;;;;;5031202;28;20021;-68
2023/12/25 04:05:02;;;;;;;12.00;7.22;;;;;;;;;;5030857;28;20044;-68
2023/12/25 04:07:28;;;;;;;12.68;7.43;;;;;;;;;;5031007;28;20041;-70
2023/12/25 04:09:54;;;;;;;11.95;6.60;;;;;;;;;;5030621;28;20034;-67
2023/12/25 04:12:20;;;;;;;11.55;6.43;;;;;;;;;;5030942;28;20021;-68
2023/12/25 04:14:46;;;;;;;11.30;6.43;;;;;;;;;;5030738;28;20061;-67
2023/12/25 04:17:12;;;;;;;10.23;6.22;;;;;;;;;;5030964;28;20052;-68
2023/12/25 04:19:38;;;;;;;13.60;6.72;;;;;;;;;;5030626;28;20548;-67
2023/12/25 04:22:04;;;;;;;13.25;7.15;;;;;;;;;;5030878;28;20029;-68
2023/12/25 04:24:30;;;;;;;12.23;6.45;;;;;;;;;;5031013;28;20026;-68
2023/12/25 04:26:56;;;;;;;11.55;6.95;;;;;;;;;;5030677;28;20040;-67
2023/12/25 04:29:22;;;;;;;13.70;6.72;;;;;;;;;;5029534;28;20030;-68
2023/12/25 04:31:48;;;;;;;12.95;6.70;;;;;;;;;;5036385;28;20451;-68
2023/12/25 04:34:14;;;;;;;21.05;6.82;;;;;;;;;;5031075;28;20026;-69
2023/12/25 04:36:39;;;;;;;10.13;6.32;;;;;;;;;;5031504;28;20041;-68
2023/12/25 04:39:06;;;;;;;13.50;6.82;;;;;;;;;;5034779;28;20505;-69
2023/12/25 04:41:32;;;;;;;11.98;7.13;;;;;;;;;;5034253;28;20021;-68
2023/12/25 04:43:58;;;;;;;10.60;6.28;;;;;;;;;;5034584;28;20494;-69
2023/12/25 04:46:23;;;;;;;34.67;7.35;;;;;;;;;;5042680;28;20056;-67
2023/12/25 04:48:49;;;;;;;13.05;6.00;;;;;;;;;;5034685;28;20447;-66
2023/12/25 04:51:15;;;;;;;16.65;6.40;;;;;;;;;;5034168;28;20017;-67
2023/12/25 04:53:41;;;;;;;12.77;5.78;;;;;;;;;;5034381;28;20709;-67
2023/12/25 04:56:11;;;;;;;9.77;6.25;;;;;;;;;;5034556;28;20025;-67
2023/12/25 04:58:37;;;;;;;9.30;5.57;;;;;;;;;;5036762;28;20025;-68
2023/12/25 05:01:06;;;;;;;11.50;6.63;;;;;;;;;;5034216;28;20029;-68
2023/12/25 05:03:32;;;;;;;10.75;5.97;;;;;;;;;;5035490;28;20495;-67
2023/12/25 05:05:59;;;;;;;9.00;5.95;;;;;;;;;;5034367;28;20040;-67
2023/12/25 05:08:25;;;;;;;10.68;5.95;;;;;;;;;;5034529;28;20017;-65
2023/12/25 05:10:51;;;;;;;13.38;5.57;;;;;;;;;;5034028;28;20033;-67
2023/12/25 05:13:17;;;;;;;10.38;6.35;;;;;;;;;;5026156;28;20017;-68
2023/12/25 05:15:43;;;;;;;10.73;5.70;;;;;;;;;;5033819;28;20063;-68
2023/12/25 05:18:09;;;;;;;10.98;6.00;;;;;;;;;;5031293;28;20040;-67
2023/12/25 05:20:35;;;;;;;12.60;5.47;;;;;;;;;;5029655;28;20017;-66
2023/12/25 05:23:01;;;;;;;14.43;6.32;;;;;;;;;;5032307;28;20025;-67
2023/12/25 05:25:27;;;;;;;10.57;5.47;;;;;;;;;;5034458;28;20025;-67
2023/12/25 05:27:53;;;;;;;10.18;5.40;;;;;;;;;;5034000;28;20025;-66
2023/12/25 05:30:19;;;;;;;9.88;5.10;;;;;;;;;;5037117;28;20030;-67
2023/12/25 05:32:45;;;;;;;7.63;5.18;;;;;;;;;;5034428;28;20105;-67
2023/12/25 05:35:11;;;;;;;8.00;5.20;;;;;;;;;;5033477;28;20025;-67
2023/12/25 05:37:37;;;;;;;10.82;5.75;;;;;;;;;;5033969;28;20033;-65
2023/12/25 05:40:04;;;;;;;7.25;5.28;;;;;;;;;;5033406;28;20021;-67
2023/12/25 05:42:30;;;;;;;8.77;5.65;;;;;;;;;;5036993;28;20512;-68
2023/12/25 05:44:56;;;;;;;7.72;4.85;;;;;;;;;;5033478;28;20025;-68
2023/12/25 05:47:22;;;;;;;7.78;4.95;;;;;;;;;;5036844;28;20505;-68
2023/12/25 05:49:48;;;;;;;9.80;5.25;;;;;;;;;;5031126;28;20053;-68
2023/12/25 05:52:14;;;;;;;8.50;4.68;;;;;;;;;;5033473;28;20079;-69
2023/12/25 05:54:41;;;;;;;12.85;5.13;;;;;;;;;;5033192;28;20104;-68
2023/12/25 05:57:07;;;;;;;7.93;5.15;;;;;;;;;;5033427;28;20017;-70
2023/12/25 05:59:33;;;;;;;9.70;4.60;;;;;;;;;;5032887;28;20052;-70
2023/12/25 06:01:59;;;;;;;6.63;4.35;;;;;;;;;;5033380;28;20167;-70
2023/12/25 06:04:24;;;;;;;8.18;4.43;;;;;;;;;;5031791;28;20025;-68
2023/12/25 06:06:53;;;;;;;9.68;4.70;;;;;;;;;;5033510;28;20670;-68
2023/12/25 06:09:19;;;;;;;12.35;5.00;;;;;;;;;;5024990;28;20106;-68
2023/12/25 06:11:45;;;;;;;9.55;4.53;;;;;;;;;;5040687;28;20486;-68
2023/12/25 06:14:11;;;;;;;8.15;5.00;;;;;;;;;;5039021;28;20044;-68
2023/12/25 06:16:37;;;;;;;11.55;4.95;;;;;;;;;;5036624;28;20029;-69
2023/12/25 06:19:03;;;;;;;12.93;4.78;;;;;;;;;;5032687;28;20461;-70
2023/12/25 06:21:29;;;;;;;7.53;4.65;;;;;;;;;;5032812;28;20025;-71
2023/12/25 06:23:56;;;;;;;6.85;4.20;;;;;;;;;;5032648;28;20112;-69
2023/12/25 06:26:22;;;;;;;9.70;4.82;;;;;;;;;;5032715;28;20502;-70
2023/12/25 06:28:48;;;;;;;9.55;4.53;;;;;;;;;;5040482;28;20117;-69
2023/12/25 06:31:15;;;;;;;6.80;4.35;;;;;;;;;;5032614;28;20044;-69
2023/12/25 06:33:40;;;;;;;9.48;4.65;;;;;;;;;;5032696;28;20021;-69
2023/12/25 06:36:07;;;;;;;7.60;4.38;;;;;;;;;;5032428;28;20029;-68
2023/12/25 06:38:33;;;;;;;7.75;4.68;;;;;;;;;;5035120;28;20057;-68
2023/12/25 06:40:59;;;;;;;7.03;4.57;;;;;;;;;;5037716;28;20029;-69
2023/12/25 06:43:27;;;;;;;10.23;4.57;;;;;;;;;;5038472;28;20538;-71
2023/12/25 06:45:54;;;;;;;28.98;6.43;;;;;;;;;;5030936;28;20033;-74
2023/12/25 06:48:22;;;;;;;5.72;3.40;;;;;;;;;;5036144;28;20029;-77
2023/12/25 06:50:48;;;;;;;10.77;2.90;;;;;;;;;;5038053;28;20077;-75
2023/12/25 06:53:14;;;;;;;7.45;2.25;;;;;;;;;;5042514;28;20025;-76
2023/12/25 06:55:40;;;;;;;7.28;1.90;;;;;;;;;;5041211;28;20401;-76
2023/12/25 06:58:06;;;;;;;10.02;2.20;;;;;;;;;;5038517;28;20028;-75
2023/12/25 07:00:32;;;;;;;9.25;2.03;;;;;;;;;;5035848;28;20483;-77
2023/12/25 07:02:58;;;;;;;7.00;2.22;;;;;;;;;;5033206;28;20029;-72
2023/12/25 07:05:24;;;;;;;7.25;2.92;;;;;;;;;;5032405;28;20026;-72
2023/12/25 07:07:50;;;;;;;5.35;2.58;;;;;;;;;;5032089;28;20094;-70
2023/12/25 07:10:16;;;;;;;9.57;2.88;;;;;;;;;;5037915;28;20040;-71
2023/12/25 07:12:42;;;;;;;4.25;2.00;;;;;;;;;;5033421;28;20021;-71
2023/12/25 07:15:08;;;;;;;4.10;1.40;;;;;;;;;;5038992;28;20025;-72
2023/12/25 07:17:34;;;;;;;2.63;1.20;;;;;;;;;;5041690;28;20051;-71
2023/12/25 07:20:00;;;;;;;1.65;1.10;;;;;;;;;;5035803;28;20597;-71
2023/12/25 07:22:29;;;;;;;2.63;1.20;;;;;;;;;;5035676;28;20018;-71
2023/12/25 07:24:54;;;;;;;1.33;0.98;;;;;;;;;;5030488;28;20040;-70
2023/12/25 07:27:21;;;;;;;1.65;0.77;;;;;;;;;;5036534;28;20021;-70
2023/12/25 07:29:47;;;;;;;1.88;1.02;;;;;;;;;;5036568;28;20028;-70
2023/12/25 07:32:13;;;;;;;2.20;0.80;;;;;;;;;;5032088;28;20638;-71
2023/12/25 07:34:39;;;;;;;1.15;0.60;;;;;;;;;;5036281;28;20032;-71
2023/12/25 07:37:08;;;;;;;0.47;0.43;;;;;;;;;;5033452;28;20017;-71
2023/12/25 07:39:33;;;;;;;0.40;0.40;;;;;;;;;;5036159;28;20026;-70
2023/12/25 07:41:59;;;;;;;0.20;0.20;;;;;;;;;;5032879;28;20033;-71
2023/12/25 07:44:25;;;;;;;0.73;0.47;;;;;;;;;;5029701;28;20065;-69
2023/12/25 07:46:51;;;;;;;0.40;0.30;;;;;;;;;;5035338;28;20025;-69
2023/12/25 07:49:17;;;;;;;0.57;0.38;;;;;;;;;;5034427;28;20028;-69
2023/12/25 07:51:43;;;;;;;1.02;0.52;;;;;;;;;;5037582;28;20104;-71
2023/12/25 07:54:09;;;;;;;0.57;0.43;;;;;;;;;;5032147;28;20403;-68
2023/12/25 07:56:36;;;;;;;0.35;0.20;;;;;;;;;;5036002;28;20056;-68
2023/12/25 07:59:02;;;;;;;1.15;0.20;;;;;;;;;;5031579;28;20094;-70
2023/12/25 08:01:28;;;;;;;0.82;0.47;;;;;;;;;;5036784;28;20132;-70
2023/12/25 08:03:54;;;;;;;0.50;0.40;;;;;;;;;;5038877;28;20021;-71
2023/12/25 08:06:20;;;;;;;0.30;0.25;;;;;;;;;;5038437;28;20537;-69
2023/12/25 08:08:48;;;;;;;1.15;0.22;;;;;;;;;;5033786;28;20088;-69
2023/12/25 08:11:15;;;;;;;0.70;0.40;;;;;;;;;;5035503;28;20075;-70
2023/12/25 08:13:41;;;;;;;0.10;0.10;;;;;;;;;;5036134;28;20025;-69
2023/12/25 08:16:07;;;;;;;0.50;0.45;;;;;;;;;;5032973;28;20017;-68
2023/12/25 08:18:33;;;;;;;0.80;0.30;;;;;;;;;;5039021;28;20021;-70
2023/12/25 08:20:59;;;;;;;0.63;0.20;;;;;;;;;;5033143;28;20021;-68
2023/12/25 08:23:25;;;;;;;0.47;0.38;;;;;;;;;;5039075;28;20104;-68
2023/12/25 08:25:51;;;;;;;2.03;0.30;;;;;;;;;;5032962;28;20037;-64
2023/12/25 08:28:17;;;;;;;3.70;0.80;;;;;;;;;;5029519;28;20021;-68
2023/12/25 08:30:43;;;;;;;7.47;1.52;;;;;;;;;;5038066;28;20079;-66
2023/12/25 08:33:09;;;;;;;23.30;2.30;;;;;;;;;;5030630;28;20474;-64
2023/12/25 08:35:35;;;;;;;15.25;3.00;;;;;;;;;;5033844;28;20448;-66
2023/12/25 08:38:01;;;;;;;20.20;4.20;;;;;;;;;;5032815;28;20018;-66
2023/12/25 08:40:28;;;;;;;18.20;2.95;;;;;;;;;;5033887;28;20028;-66
2023/12/25 08:42:54;;;;;;;17.67;2.30;;;;;;;;;;5035235;28;20025;-64
2023/12/25 08:45:20;;;;;;;17.05;2.90;;;;;;;;;;5030783;28;20025;-66
2023/12/25 08:47:51;;;;;;;42.83;4.68;;;;;;;;;;5035956;28;20029;-66
2023/12/25 08:50:17;;;;;;;14.60;3.47;;;;;;;;;;5040903;28;20166;-67
2023/12/25 08:52:43;;;;;;;19.70;4.25;;;;;;;;;;5032370;28;20021;-66
2023/12/25 08:55:09;;;;;;;13.13;4.18;;;;;;;;;;5031360;28;20402;-67
2023/12/25 08:57:35;;;;;;;9.20;4.15;;;;;;;;;;5031912;28;20022;-65
2023/12/25 09:00:03;;;;;;;16.38;3.92;;;;;;;;;;5039122;28;20021;-67
2023/12/25 09:02:29;;;;;;;14.18;4.25;;;;;;;;;;5039283;28;20112;-65
2023/12/25 09:04:55;;;;;;;14.40;4.30;;;;;;;;;;5028868;28;20156;-64
2023/12/25 09:07:21;;;;;;;13.25;3.95;;;;;;;;;;5031116;28;20017;-66
2023/12/25 09:09:47;;;;;;;27.88;4.70;;;;;;;;;;5030093;28;20021;-66
2023/12/25 09:12:13;;;;;;;15.23;3.90;;;;;;;;;;5030418;28;20505;-66
2023/12/25 09:14:39;;;;;;;10.77;3.80;;;;;;;;;;5030205;28;20030;-66
2023/12/25 09:17:05;;;;;;;15.30;3.78;;;;;;;;;;5030169;28;20017;-67
2023/12/25 09:19:31;;;;;;;16.83;4.07;;;;;;;;;;5030310;28;20049;-67
2023/12/25 09:21:58;;;;;;;18.67;4.82;;;;;;;;;;5030323;28;20025;-67
2023/12/25 09:24:24;;;;;;;21.98;4.30;;;;;;;;;;5031743;28;20071;-67
2023/12/25 09:26:50;;;;;;;9.88;3.55;;;;;;;;;;5033872;28;20453;-67
2023/12/25 09:29:16;;;;;;;11.27;3.20;;;;;;;;;;5035233;28;20076;-66
2023/12/25 09:31:42;;;;;;;40.17;5.40;;;;;;;;;;5033994;28;20037;-67
2023/12/25 09:34:08;;;;;;;17.70;4.38;;;;;;;;;;5033743;28;20061;-67
2023/12/25 09:36:34;;;;;;;15.50;4.22;;;;;;;;;;5032816;28;20028;-67
2023/12/25 09:39:00;;;;;;;14.77;5.10;;;;;;;;;;5033166;28;20071;-68
2023/12/25 09:41:32;;;;;;;18.80;4.05;;;;;;;;;;5032917;28;20025;-67
2023/12/25 09:43:58;;;;;;;16.30;4.18;;;;;;;;;;5033161;28;20033;-67
2023/12/25 09:46:25;;;;;;;14.23;4.63;;;;;;;;;;5032810;28;20014;-69
2023/12/25 09:48:51;;;;;;;17.88;4.55;;;;;;;;;;5032850;28;20025;-67
2023/12/25 09:51:18;;;;;;;13.35;3.88;;;;;;;;;;5032961;28;20025;-68
2023/12/25 09:53:44;;;;;;;24.05;4.45;;;;;;;;;;5031802;28;20079;-69
2023/12/25 09:56:12;;;;;;;10.63;3.47;;;;;;;;;;5033290;28;20033;-69
2023/12/25 09:58:39;;;;;;;14.40;3.17;;;;;;;;;;5033351;28;20548;-66
2023/12/25 10:01:06;;;;;;;14.75;3.78;;;;;;;;;;5031688;28;20010;-69
2023/12/25 10:03:33;;;;;;;15.15;3.35;;;;;;;;;;5033184;28;20104;-68
2023/12/25 10:05:59;;;;;;;10.73;3.80;;;;;;;;;;5033003;28;20033;-68
2023/12/25 10:08:27;;;;;;;8.73;3.38;;;;;;;;;;5033029;28;20027;-68
2023/12/25 10:10:56;;;;;;;15.25;3.65;;;;;;;;;;5033104;28;20109;-67
2023/12/25 10:13:25;;;;;;;14.45;3.58;;;;;;;;;;5025302;28;20033;-68
2023/12/25 10:15:51;;;;;;;15.05;3.92;;;;;;;;;;5033106;28;20021;-68
2023/12/25 10:18:19;;;;;;;11.13;3.83;;;;;;;;;;5033059;28;20027;-68
2023/12/25 10:20:55;;;;;;;12.82;4.53;;;;;;;;;;5032596;28;20097;-66
2023/12/25 10:23:27;;;;;;;14.77;3.70;;;;;;;;;;5025164;28;20037;-68
2023/12/25 10:25:53;;;;;;;9.60;3.40;;;;;;;;;;5032916;28;20030;-66
2023/12/25 10:28:21;;;;;;;13.45;3.92;;;;;;;;;;5032539;28;20406;-64
2023/12/25 10:30:58;;;;;;;13.75;3.60;;;;;;;;;;5034213;28;20587;-66
2023/12/25 10:33:24;;;;;;;13.88;3.65;;;;;;;;;;5037351;28;20029;-66
2023/12/25 10:36:00;;;;;;;12.88;3.63;;;;;;;;;;5028369;28;20029;-68
2023/12/25 10:38:26;;;;;;;17.45;4.00;;;;;;;;;;5028830;28;20042;-67
2023/12/25 10:40:52;;;;;;;14.10;4.05;;;;;;;;;;5032300;28;20021;-67
2023/12/25 10:43:19;;;;;;;13.60;3.63;;;;;;;;;;5032413;28;20483;-68
2023/12/25 10:45:45;;;;;;;10.38;3.33;;;;;;;;;;5032507;28;20495;-67
2023/12/25 10:48:11;;;;;;;16.60;3.55;;;;;;;;;;5032641;28;20025;-68
2023/12/25 10:50:39;;;;;;;10.48;3.15;;;;;;;;;;5032233;28;20037;-67
2023/12/25 10:53:05;;;;;;;11.05;3.53;;;;;;;;;;5032124;28;20025;-67
2023/12/25 10:55:38;;;;;;;8.38;3.13;;;;;;;;;;5032254;28;20056;-68
2023/12/25 10:58:08;;;;;;;11.07;3.25;;;;;;;;;;5030945;28;20026;-67
2023/12/25 11:00:39;;;;;;;14.80;3.43;;;;;;;;;;5032172;28;20097;-65
2023/12/25 11:03:05;;;;;;;23.25;4.82;;;;;;;;;;5031712;28;20014;-69
2023/12/25 11:05:31;;;;;;;37.47;5.18;;;;;;;;;;5031960;28;20028;-70
2023/12/25 11:07:58;;;;;;;17.55;4.28;;;;;;;;;;5030665;28;20053;-67
2023/12/25 11:10:25;;;;;;;28.25;4.75;;;;;;;;;;5031783;28;20506;-67
2023/12/25 11:12:51;;;;;;;19.83;4.28;;;;;;;;;;5030932;28;20445;-68
2023/12/25 11:15:17;;;;;;;19.73;4.68;;;;;;;;;;5030533;28;20459;-67
2023/12/25 11:17:43;;;;;;;16.98;4.15;;;;;;;;;;5029995;28;20018;-66
2023/12/25 11:20:12;;;;;;;15.90;3.60;;;;;;;;;;5030319;28;20029;-65
2023/12/25 11:22:44;;;;;;;21.25;3.53;;;;;;;;;;5030222;28;20025;-66
2023/12/25 11:25:11;;;;;;;18.63;3.78;;;;;;;;;;5028431;28;20501;-67
2023/12/25 11:27:37;;;;;;;14.27;3.55;;;;;;;;;;5030079;28;20033;-68
2023/12/25 11:30:04;;;;;;;16.55;3.50;;;;;;;;;;5030060;28;20025;-70
2023/12/25 11:32:30;;;;;;;10.13;4.00;;;;;;;;;;5029864;28;20028;-69
2023/12/25 11:34:57;;;;;;;14.13;4.20;;;;;;;;;;5029657;28;20359;-71
2023/12/25 11:37:24;;;;;;;8.80;3.10;;;;;;;;;;5036451;28;20013;-69
2023/12/25 11:39:59;;;;;;;15.63;3.72;;;;;;;;;;5029998;28;20368;-68
2023/12/25 11:42:25;;;;;;;14.38;3.22;;;;;;;;;;5025028;28;20048;-68
2023/12/25 11:44:56;;;;;;;17.42;4.28;;;;;;;;;;5029945;28;20109;-67
2023/12/25 11:47:29;;;;;;;13.02;4.32;;;;;;;;;;5022043;28;20049;-72
2023/12/25 11:49:58;;;;;;;9.75;3.17;;;;;;;;;;5030106;28;20104;-70
2023/12/25 11:52:43;;;;;;;18.55;4.03;;;;;;;;;;5030365;28;20025;-71
2023/12/25 11:55:09;;;;;;;12.60;3.65;;;;;;;;;;5030100;28;20574;-72
2023/12/25 11:57:35;;;;;;;13.65;3.38;;;;;;;;;;5029864;28;20071;-69
2023/12/25 12:00:02;;;;;;;16.10;3.88;;;;;;;;;;5029244;28;20034;-69
2023/12/25 12:02:28;;;;;;;27.50;7.28;;;;;;;;;;5033418;28;20068;-70
2023/12/25 12:04:54;;;;;;;65.15;15.20;;;;;;;;;;5029821;28;20057;-69
2023/12/25 12:07:21;;;;;;;75.80;14.57;;;;;;;;;;5021581;28;20097;-71
2023/12/25 12:09:47;;;;;;;76.90;16.10;;;;;;;;;;5033013;28;20551;-70
2023/12/25 12:12:13;;;;;;;77.55;18.35;;;;;;;;;;5029674;28;20088;-71
2023/12/25 12:14:39;;;;;;;71.95;16.23;;;;;;;;;;5029202;28;20029;-70
2023/12/25 12:17:05;;;;;;;53.17;12.70;;;;;;;;;;5029659;28;20020;-70
2023/12/25 12:19:31;;;;;;;55.95;13.95;;;;;;;;;;5029461;28;20018;-69
2023/12/25 12:21:58;;;;;;;57.55;12.80;;;;;;;;;;5029602;28;20044;-68
2023/12/25 12:24:25;;;;;;;43.63;10.75;;;;;;;;;;5029239;28;20029;-69
2023/12/25 12:26:51;;;;;;;42.50;11.00;;;;;;;;;;5029480;28;20387;-68
2023/12/25 12:29:17;;;;;;;37.00;10.48;;;;;;;;;;5030901;28;20022;-68
2023/12/25 12:31:43;;;;;;;43.95;9.90;;;;;;;;;;5029605;28;20376;-67
2023/12/25 12:34:09;;;;;;;35.90;9.65;;;;;;;;;;5029330;28;20049;-67
2023/12/25 12:36:35;;;;;;;50.35;10.38;;;;;;;;;;5029454;28;20521;-68
2023/12/25 12:39:01;;;;;;;36.17;9.75;;;;;;;;;;5027552;28;20203;-68
2023/12/25 12:41:28;;;;;;;37.50;9.40;;;;;;;;;;5027518;28;20064;-68
2023/12/25 12:44:04;;;;;;;37.00;9.18;;;;;;;;;;5026842;28;20108;-69
2023/12/25 12:46:30;;;;;;;33.30;9.20;;;;;;;;;;5026607;28;20101;-69
2023/12/25 12:48:56;;;;;;;35.95;9.77;;;;;;;;;;5029732;28;20032;-68
2023/12/25 12:51:23;;;;;;;31.13;8.57;;;;;;;;;;5032727;28;20021;-68
2023/12/25 12:53:49;;;;;;;31.90;9.50;;;;;;;;;;5039965;28;20021;-68
2023/12/25 12:56:15;;;;;;;35.92;9.52;;;;;;;;;;5035069;28;20037;-68
2023/12/25 12:58:42;;;;;;;26.35;8.63;;;;;;;;;;5033022;28;20026;-68
2023/12/25 13:01:08;;;;;;;30.95;8.85;;;;;;;;;;5039237;28;20399;-67
2023/12/25 13:03:35;;;;;;;33.40;9.23;;;;;;;;;;5033117;28;20021;-68
2023/12/25 13:06:01;;;;;;;22.08;8.02;;;;;;;;;;5033812;28;20025;-69
2023/12/25 13:08:27;;;;;;;29.35;8.77;;;;;;;;;;5031636;28;20126;-69
2023/12/25 13:10:53;;;;;;;24.73;7.90;;;;;;;;;;5030673;28;20520;-68
2023/12/25 13:13:20;;;;;;;26.70;8.00;;;;;;;;;;5024047;28;20025;-69
2023/12/25 13:15:46;;;;;;;23.15;6.82;;;;;;;;;;5032112;28;20044;-70
2023/12/25 13:18:12;;;;;;;26.75;6.97;;;;;;;;;;5033015;28;20057;-68
2023/12/25 13:20:38;;;;;;;27.27;8.20;;;;;;;;;;5032497;28;20537;-68
2023/12/25 13:23:04;;;;;;;27.25;7.60;;;;;;;;;;5032731;28;20020;-68
2023/12/25 13:25:30;;;;;;;28.17;8.55;;;;;;;;;;5031881;28;20030;-68
2023/12/25 13:27:56;;;;;;;27.30;8.63;;;;;;;;;;5032068;28;20025;-69
2023/12/25 13:30:22;;;;;;;26.60;7.07;;;;;;;;;;5030649;28;20063;-68
2023/12/25 13:32:48;;;;;;;22.02;6.18;;;;;;;;;;5032884;28;20040;-68
2023/12/25 13:35:14;;;;;;;23.17;7.07;;;;;;;;;;5036463;28;20029;-68
2023/12/25 13:37:40;;;;;;;27.95;7.10;;;;;;;;;;5035881;28;20029;-67
2023/12/25 13:40:06;;;;;;;21.45;6.78;;;;;;;;;;5029498;28;20097;-68
2023/12/25 13:42:33;;;;;;;23.00;6.78;;;;;;;;;;5033274;28;20025;-67
2023/12/25 13:44:59;;;;;;;24.67;6.70;;;;;;;;;;5035383;28;20021;-67
2023/12/25 13:47:25;;;;;;;20.52;6.55;;;;;;;;;;5030466;28;20048;-68
2023/12/25 13:49:51;;;;;;;19.95;6.35;;;;;;;;;;5031757;28;20033;-67
2023/12/25 13:52:17;;;;;;;33.95;7.70;;;;;;;;;;5034520;28;20033;-69
2023/12/25 13:54:43;;;;;;;17.10;5.82;;;;;;;;;;5035321;28;20036;-67
2023/12/25 13:57:09;;;;;;;18.85;6.47;;;;;;;;;;5031511;28;20018;-68
2023/12/25 13:59:35;;;;;;;21.92;7.18;;;;;;;;;;5031863;28;20018;-68
2023/12/25 14:02:01;;;;;;;18.83;5.97;;;;;;;;;;5033791;28;20373;-68
2023/12/25 14:04:27;;;;;;;22.52;6.93;;;;;;;;;;5036100;28;20040;-69
2023/12/25 14:06:53;;;;;;;26.15;6.43;;;;;;;;;;5039934;28;20147;-66
2023/12/25 14:09:19;;;;;;;19.25;6.30;;;;;;;;;;5038751;28;20044;-69
2023/12/25 14:11:45;;;;;;;22.73;6.30;;;;;;;;;;5034426;28;20387;-69
2023/12/25 14:14:11;;;;;;;23.63;6.32;;;;;;;;;;5034689;28;20413;-69
2023/12/25 14:16:37;;;;;;;7.28;2.25;;;;;;;;;;5034695;28;20473;-67
2023/12/25 14:19:03;;;;;;;20.48;3.13;;;;;;;;;;5029297;28;20128;-68
2023/12/25 14:21:29;;;;;;;11.32;3.38;;;;;;;;;;5031609;28;20030;-69
2023/12/25 14:23:56;;;;;;;13.25;3.33;;;;;;;;;;5031264;28;20049;-69
2023/12/25 14:26:22;;;;;;;8.07;3.05;;;;;;;;;;5033448;28;20049;-70